sensor_id;sensor_type;location;lat;lon;timestamp;P1;durP1;ratioP1;P2;durP2;ratioP2
33170;SDS011;19535;50.672;4.206;2023-01-20T00:01:07;66.45;;;59.83;;
33170;SDS011;19535;50.672;4.206;2023-01-20T00:03:37;59.70;;;53.78;;
33170;SDS011;19535;50.672;4.206;2023-01-20T00:06:05;55.40;;;49.78;;
33170;SDS011;19535;50.672;4.206;2023-01-20T00:08:32;52.75;;;47.67;;
33170;SDS011;19535;50.672;4.206;2023-01-20T00:11:06;51.95;;;46.75;;
33170;SDS011;19535;50.672;4.206;2023-01-20T00:13:35;49.40;;;44.63;;
33170;SDS011;19535;50.672;4.206;2023-01-20T00:16:06;47.03;;;42.60;;
33170;SDS011;19535;50.672;4.206;2023-01-20T00:18:35;45.67;;;41.40;;
33170;SDS011;19535;50.672;4.206;2023-01-20T00:21:10;45.00;;;40.40;;
33170;SDS011;19535;50.672;4.206;2023-01-20T00:23:39;41.33;;;37.47;;
33170;SDS011;19535;50.672;4.206;2023-01-20T00:26:07;39.90;;;36.33;;
33170;SDS011;19535;50.672;4.206;2023-01-20T00:28:36;41.80;;;37.88;;
33170;SDS011;19535;50.672;4.206;2023-01-20T00:33:46;37.70;;;34.30;;
33170;SDS011;19535;50.672;4.206;2023-01-20T00:36:14;38.63;;;35.08;;
33170;SDS011;19535;50.672;4.206;2023-01-20T00:38:42;35.63;;;32.63;;
33170;SDS011;19535;50.672;4.206;2023-01-20T00:41:09;34.55;;;31.55;;
33170;SDS011;19535;50.672;4.206;2023-01-20T00:43:36;33.72;;;30.65;;
33170;SDS011;19535;50.672;4.206;2023-01-20T00:46:04;33.83;;;30.83;;
33170;SDS011;19535;50.672;4.206;2023-01-20T00:48:31;32.88;;;29.90;;
33170;SDS011;19535;50.672;4.206;2023-01-20T00:50:58;31.23;;;28.58;;
33170;SDS011;19535;50.672;4.206;2023-01-20T00:53:26;31.17;;;28.48;;
33170;SDS011;19535;50.672;4.206;2023-01-20T00:55:53;29.95;;;27.48;;
33170;SDS011;19535;50.672;4.206;2023-01-20T00:58:20;29.92;;;27.35;;
33170;SDS011;19535;50.672;4.206;2023-01-20T01:00:50;30.55;;;27.95;;
33170;SDS011;19535;50.672;4.206;2023-01-20T01:03:18;28.98;;;26.58;;
33170;SDS011;19535;50.672;4.206;2023-01-20T01:05:45;27.83;;;25.48;;
33170;SDS011;19535;50.672;4.206;2023-01-20T01:08:12;28.67;;;26.17;;
33170;SDS011;19535;50.672;4.206;2023-01-20T01:10:39;27.67;;;25.38;;
33170;SDS011;19535;50.672;4.206;2023-01-20T01:13:06;26.25;;;24.15;;
33170;SDS011;19535;50.672;4.206;2023-01-20T01:15:33;26.27;;;24.17;;
33170;SDS011;19535;50.672;4.206;2023-01-20T01:18:00;24.95;;;22.95;;
33170;SDS011;19535;50.672;4.206;2023-01-20T01:20:27;25.45;;;23.42;;
33170;SDS011;19535;50.672;4.206;2023-01-20T01:22:54;24.55;;;22.50;;
33170;SDS011;19535;50.672;4.206;2023-01-20T01:25:21;25.15;;;23.15;;
33170;SDS011;19535;50.672;4.206;2023-01-20T01:27:48;24.60;;;22.50;;
33170;SDS011;19535;50.672;4.206;2023-01-20T01:30:15;22.23;;;20.42;;
33170;SDS011;19535;50.672;4.206;2023-01-20T01:32:42;23.80;;;21.80;;
33170;SDS011;19535;50.672;4.206;2023-01-20T01:35:08;21.70;;;19.90;;
33170;SDS011;19535;50.672;4.206;2023-01-20T01:37:35;23.05;;;21.17;;
33170;SDS011;19535;50.672;4.206;2023-01-20T01:40:02;22.27;;;20.38;;
33170;SDS011;19535;50.672;4.206;2023-01-20T01:42:29;23.77;;;21.85;;
33170;SDS011;19535;50.672;4.206;2023-01-20T01:47:41;21.15;;;19.45;;
33170;SDS011;19535;50.672;4.206;2023-01-20T01:50:11;22.13;;;20.33;;
33170;SDS011;19535;50.672;4.206;2023-01-20T01:52:45;21.05;;;19.35;;
33170;SDS011;19535;50.672;4.206;2023-01-20T01:55:17;20.33;;;18.70;;
33170;SDS011;19535;50.672;4.206;2023-01-20T01:57:45;19.85;;;18.15;;
33170;SDS011;19535;50.672;4.206;2023-01-20T02:00:15;19.88;;;18.17;;
33170;SDS011;19535;50.672;4.206;2023-01-20T02:02:42;18.02;;;16.63;;
33170;SDS011;19535;50.672;4.206;2023-01-20T02:05:11;19.30;;;17.65;;
33170;SDS011;19535;50.672;4.206;2023-01-20T02:07:39;18.42;;;16.92;;
33170;SDS011;19535;50.672;4.206;2023-01-20T02:10:08;17.73;;;16.23;;
33170;SDS011;19535;50.672;4.206;2023-01-20T02:12:36;16.92;;;15.52;;
33170;SDS011;19535;50.672;4.206;2023-01-20T02:15:03;16.33;;;14.93;;
33170;SDS011;19535;50.672;4.206;2023-01-20T02:17:31;17.20;;;15.80;;
33170;SDS011;19535;50.672;4.206;2023-01-20T02:22:53;15.45;;;14.15;;
33170;SDS011;19535;50.672;4.206;2023-01-20T02:34:37;14.52;;;13.32;;
33170;SDS011;19535;50.672;4.206;2023-01-20T02:37:14;14.63;;;13.43;;
33170;SDS011;19535;50.672;4.206;2023-01-20T02:42:37;14.32;;;13.13;;
33170;SDS011;19535;50.672;4.206;2023-01-20T02:53:12;13.13;;;11.93;;
33170;SDS011;19535;50.672;4.206;2023-01-20T02:55:51;13.13;;;11.93;;
33170;SDS011;19535;50.672;4.206;2023-01-20T02:58:22;12.95;;;11.85;;
33170;SDS011;19535;50.672;4.206;2023-01-20T03:01:07;13.18;;;12.07;;
33170;SDS011;19535;50.672;4.206;2023-01-20T03:03:38;13.30;;;12.20;;
33170;SDS011;19535;50.672;4.206;2023-01-20T03:06:09;11.23;;;10.32;;
33170;SDS011;19535;50.672;4.206;2023-01-20T03:08:44;12.38;;;11.30;;
33170;SDS011;19535;50.672;4.206;2023-01-20T03:11:13;11.45;;;10.48;;
33170;SDS011;19535;50.672;4.206;2023-01-20T03:13:47;12.32;;;11.32;;
33170;SDS011;19535;50.672;4.206;2023-01-20T03:16:30;13.00;;;11.90;;
33170;SDS011;19535;50.672;4.206;2023-01-20T03:18:57;11.18;;;10.27;;
33170;SDS011;19535;50.672;4.206;2023-01-20T03:21:24;10.80;;;9.90;;
33170;SDS011;19535;50.672;4.206;2023-01-20T03:24:07;10.68;;;9.77;;
33170;SDS011;19535;50.672;4.206;2023-01-20T03:26:34;10.57;;;9.68;;
33170;SDS011;19535;50.672;4.206;2023-01-20T03:29:05;10.02;;;9.20;;
33170;SDS011;19535;50.672;4.206;2023-01-20T03:31:38;10.65;;;9.82;;
33170;SDS011;19535;50.672;4.206;2023-01-20T03:34:09;10.65;;;9.75;;
33170;SDS011;19535;50.672;4.206;2023-01-20T03:36:38;10.75;;;9.85;;
33170;SDS011;19535;50.672;4.206;2023-01-20T03:39:05;10.13;;;9.32;;
33170;SDS011;19535;50.672;4.206;2023-01-20T03:46:45;9.85;;;9.05;;
33170;SDS011;19535;50.672;4.206;2023-01-20T03:52:30;10.18;;;9.27;;
33170;SDS011;19535;50.672;4.206;2023-01-20T03:55:21;9.48;;;8.68;;
33170;SDS011;19535;50.672;4.206;2023-01-20T03:57:55;9.32;;;8.52;;
33170;SDS011;19535;50.672;4.206;2023-01-20T04:00:29;9.25;;;8.55;;
33170;SDS011;19535;50.672;4.206;2023-01-20T04:03:01;9.07;;;8.38;;
33170;SDS011;19535;50.672;4.206;2023-01-20T04:05:32;8.80;;;8.10;;
33170;SDS011;19535;50.672;4.206;2023-01-20T04:08:00;8.95;;;8.25;;
33170;SDS011;19535;50.672;4.206;2023-01-20T04:12:56;8.73;;;8.02;;
33170;SDS011;19535;50.672;4.206;2023-01-20T04:15:23;8.35;;;7.65;;
33170;SDS011;19535;50.672;4.206;2023-01-20T04:17:51;7.78;;;7.18;;
33170;SDS011;19535;50.672;4.206;2023-01-20T04:20:17;8.32;;;7.63;;
33170;SDS011;19535;50.672;4.206;2023-01-20T04:22:48;8.30;;;7.57;;
33170;SDS011;19535;50.672;4.206;2023-01-20T04:25:26;7.90;;;7.20;;
33170;SDS011;19535;50.672;4.206;2023-01-20T04:27:56;7.78;;;7.18;;
33170;SDS011;19535;50.672;4.206;2023-01-20T04:30:23;7.70;;;7.10;;
33170;SDS011;19535;50.672;4.206;2023-01-20T04:32:50;7.80;;;7.20;;
33170;SDS011;19535;50.672;4.206;2023-01-20T04:35:18;6.78;;;6.28;;
33170;SDS011;19535;50.672;4.206;2023-01-20T04:37:45;7.28;;;6.68;;
33170;SDS011;19535;50.672;4.206;2023-01-20T04:40:12;7.60;;;7.00;;
33170;SDS011;19535;50.672;4.206;2023-01-20T04:42:39;7.13;;;6.57;;
33170;SDS011;19535;50.672;4.206;2023-01-20T04:45:06;7.22;;;6.63;;
33170;SDS011;19535;50.672;4.206;2023-01-20T04:47:33;6.70;;;6.20;;
33170;SDS011;19535;50.672;4.206;2023-01-20T04:49:59;6.72;;;6.22;;
33170;SDS011;19535;50.672;4.206;2023-01-20T04:52:26;6.35;;;5.85;;
33170;SDS011;19535;50.672;4.206;2023-01-20T04:54:53;6.32;;;5.82;;
33170;SDS011;19535;50.672;4.206;2023-01-20T04:57:20;6.10;;;5.60;;
33170;SDS011;19535;50.672;4.206;2023-01-20T04:59:46;5.68;;;5.20;;
33170;SDS011;19535;50.672;4.206;2023-01-20T05:02:15;6.30;;;5.70;;
33170;SDS011;19535;50.672;4.206;2023-01-20T05:04:42;6.00;;;5.50;;
33170;SDS011;19535;50.672;4.206;2023-01-20T05:07:08;5.90;;;5.43;;
33170;SDS011;19535;50.672;4.206;2023-01-20T05:09:35;5.90;;;5.50;;
33170;SDS011;19535;50.672;4.206;2023-01-20T05:12:02;6.03;;;5.53;;
33170;SDS011;19535;50.672;4.206;2023-01-20T05:14:29;6.13;;;5.63;;
33170;SDS011;19535;50.672;4.206;2023-01-20T05:16:56;5.40;;;5.00;;
33170;SDS011;19535;50.672;4.206;2023-01-20T05:19:22;5.50;;;5.10;;
33170;SDS011;19535;50.672;4.206;2023-01-20T05:21:49;5.18;;;4.78;;
33170;SDS011;19535;50.672;4.206;2023-01-20T05:24:16;5.60;;;5.10;;
33170;SDS011;19535;50.672;4.206;2023-01-20T05:26:43;5.65;;;5.25;;
33170;SDS011;19535;50.672;4.206;2023-01-20T05:29:09;5.53;;;5.10;;
33170;SDS011;19535;50.672;4.206;2023-01-20T05:31:36;5.15;;;4.75;;
33170;SDS011;19535;50.672;4.206;2023-01-20T05:34:08;5.45;;;5.05;;
33170;SDS011;19535;50.672;4.206;2023-01-20T05:36:35;4.75;;;4.38;;
33170;SDS011;19535;50.672;4.206;2023-01-20T05:39:02;5.47;;;5.05;;
33170;SDS011;19535;50.672;4.206;2023-01-20T05:41:29;5.25;;;4.85;;
33170;SDS011;19535;50.672;4.206;2023-01-20T05:43:56;4.88;;;4.47;;
33170;SDS011;19535;50.672;4.206;2023-01-20T05:46:22;4.80;;;4.40;;
33170;SDS011;19535;50.672;4.206;2023-01-20T05:48:49;4.90;;;4.50;;
33170;SDS011;19535;50.672;4.206;2023-01-20T05:51:16;5.07;;;4.63;;
33170;SDS011;19535;50.672;4.206;2023-01-20T05:53:43;4.97;;;4.55;;
33170;SDS011;19535;50.672;4.206;2023-01-20T05:56:09;4.50;;;4.10;;
33170;SDS011;19535;50.672;4.206;2023-01-20T05:58:41;4.72;;;4.32;;
33170;SDS011;19535;50.672;4.206;2023-01-20T06:01:09;5.00;;;4.60;;
33170;SDS011;19535;50.672;4.206;2023-01-20T06:03:37;4.38;;;4.00;;
33170;SDS011;19535;50.672;4.206;2023-01-20T06:06:06;4.90;;;4.50;;
33170;SDS011;19535;50.672;4.206;2023-01-20T06:08:34;4.73;;;4.43;;
33170;SDS011;19535;50.672;4.206;2023-01-20T06:11:01;4.88;;;4.47;;
33170;SDS011;19535;50.672;4.206;2023-01-20T06:13:28;4.30;;;4.00;;
33170;SDS011;19535;50.672;4.206;2023-01-20T06:15:55;4.18;;;3.88;;
33170;SDS011;19535;50.672;4.206;2023-01-20T06:18:23;4.88;;;4.47;;
33170;SDS011;19535;50.672;4.206;2023-01-20T06:20:50;3.92;;;3.63;;
33170;SDS011;19535;50.672;4.206;2023-01-20T06:23:17;4.68;;;4.28;;
33170;SDS011;19535;50.672;4.206;2023-01-20T06:25:44;4.43;;;4.03;;
33170;SDS011;19535;50.672;4.206;2023-01-20T06:28:10;4.53;;;4.20;;
33170;SDS011;19535;50.672;4.206;2023-01-20T06:30:37;4.43;;;4.13;;
33170;SDS011;19535;50.672;4.206;2023-01-20T06:33:08;4.15;;;3.85;;
33170;SDS011;19535;50.672;4.206;2023-01-20T06:35:36;4.60;;;4.20;;
33170;SDS011;19535;50.672;4.206;2023-01-20T06:38:03;3.83;;;3.53;;
33170;SDS011;19535;50.672;4.206;2023-01-20T06:40:30;4.10;;;3.80;;
33170;SDS011;19535;50.672;4.206;2023-01-20T06:42:57;4.25;;;3.95;;
33170;SDS011;19535;50.672;4.206;2023-01-20T06:45:24;4.60;;;4.30;;
33170;SDS011;19535;50.672;4.206;2023-01-20T06:47:51;4.13;;;3.83;;
33170;SDS011;19535;50.672;4.206;2023-01-20T06:50:18;4.90;;;4.47;;
33170;SDS011;19535;50.672;4.206;2023-01-20T06:52:44;4.78;;;4.30;;
33170;SDS011;19535;50.672;4.206;2023-01-20T06:55:11;4.65;;;4.30;;
33170;SDS011;19535;50.672;4.206;2023-01-20T06:57:38;4.60;;;4.30;;
33170;SDS011;19535;50.672;4.206;2023-01-20T07:00:05;4.78;;;4.35;;
33170;SDS011;19535;50.672;4.206;2023-01-20T07:02:33;4.47;;;4.07;;
33170;SDS011;19535;50.672;4.206;2023-01-20T07:05:00;18.67;;;17.08;;
33170;SDS011;19535;50.672;4.206;2023-01-20T07:07:27;24.52;;;22.30;;
33170;SDS011;19535;50.672;4.206;2023-01-20T07:09:54;23.00;;;21.00;;
33170;SDS011;19535;50.672;4.206;2023-01-20T07:12:21;19.13;;;17.13;;
33170;SDS011;19535;50.672;4.206;2023-01-20T07:14:48;16.38;;;15.00;;
33170;SDS011;19535;50.672;4.206;2023-01-20T07:17:14;14.38;;;13.00;;
33170;SDS011;19535;50.672;4.206;2023-01-20T07:19:41;13.25;;;12.10;;
33170;SDS011;19535;50.672;4.206;2023-01-20T07:22:08;12.15;;;11.05;;
33170;SDS011;19535;50.672;4.206;2023-01-20T07:24:35;11.73;;;10.73;;
33170;SDS011;19535;50.672;4.206;2023-01-20T07:27:02;10.70;;;9.80;;
33170;SDS011;19535;50.672;4.206;2023-01-20T07:29:28;9.82;;;9.02;;
33170;SDS011;19535;50.672;4.206;2023-01-20T07:31:55;10.80;;;9.20;;
33170;SDS011;19535;50.672;4.206;2023-01-20T07:34:22;9.10;;;7.88;;
33170;SDS011;19535;50.672;4.206;2023-01-20T07:36:50;7.75;;;7.07;;
33170;SDS011;19535;50.672;4.206;2023-01-20T07:39:18;7.43;;;6.50;;
33170;SDS011;19535;50.672;4.206;2023-01-20T07:41:48;8.15;;;7.40;;
33170;SDS011;19535;50.672;4.206;2023-01-20T07:44:15;7.50;;;6.85;;
33170;SDS011;19535;50.672;4.206;2023-01-20T07:46:42;7.30;;;6.60;;
33170;SDS011;19535;50.672;4.206;2023-01-20T07:49:09;6.07;;;5.57;;
33170;SDS011;19535;50.672;4.206;2023-01-20T07:51:37;6.43;;;5.90;;
33170;SDS011;19535;50.672;4.206;2023-01-20T07:54:05;6.45;;;5.85;;
33170;SDS011;19535;50.672;4.206;2023-01-20T07:56:32;5.97;;;5.47;;
33170;SDS011;19535;50.672;4.206;2023-01-20T07:58:59;5.70;;;5.20;;
33170;SDS011;19535;50.672;4.206;2023-01-20T08:01:27;6.18;;;5.57;;
33170;SDS011;19535;50.672;4.206;2023-01-20T08:03:55;5.65;;;5.15;;
33170;SDS011;19535;50.672;4.206;2023-01-20T08:06:23;5.13;;;4.72;;
33170;SDS011;19535;50.672;4.206;2023-01-20T08:08:51;5.47;;;5.07;;
33170;SDS011;19535;50.672;4.206;2023-01-20T08:11:19;5.28;;;4.85;;
33170;SDS011;19535;50.672;4.206;2023-01-20T08:13:47;5.13;;;4.72;;
33170;SDS011;19535;50.672;4.206;2023-01-20T08:16:14;5.15;;;4.75;;
33170;SDS011;19535;50.672;4.206;2023-01-20T08:18:43;4.50;;;4.10;;
33170;SDS011;19535;50.672;4.206;2023-01-20T08:21:18;5.00;;;4.28;;
33170;SDS011;19535;50.672;4.206;2023-01-20T08:23:56;5.32;;;4.82;;
33170;SDS011;19535;50.672;4.206;2023-01-20T08:26:24;4.53;;;4.13;;
33170;SDS011;19535;50.672;4.206;2023-01-20T08:28:55;4.55;;;4.15;;
33170;SDS011;19535;50.672;4.206;2023-01-20T08:31:27;4.22;;;3.88;;
33170;SDS011;19535;50.672;4.206;2023-01-20T08:33:54;5.30;;;4.00;;
33170;SDS011;19535;50.672;4.206;2023-01-20T08:36:23;4.30;;;4.00;;
33170;SDS011;19535;50.672;4.206;2023-01-20T08:39:01;4.03;;;3.65;;
33170;SDS011;19535;50.672;4.206;2023-01-20T08:41:31;3.92;;;3.63;;
33170;SDS011;19535;50.672;4.206;2023-01-20T08:43:59;4.35;;;3.60;;
33170;SDS011;19535;50.672;4.206;2023-01-20T08:46:27;4.20;;;3.80;;
33170;SDS011;19535;50.672;4.206;2023-01-20T08:48:54;4.03;;;3.72;;
33170;SDS011;19535;50.672;4.206;2023-01-20T08:51:22;3.63;;;3.30;;
33170;SDS011;19535;50.672;4.206;2023-01-20T08:53:54;4.20;;;3.80;;
33170;SDS011;19535;50.672;4.206;2023-01-20T08:56:21;4.30;;;3.80;;
33170;SDS011;19535;50.672;4.206;2023-01-20T08:58:48;3.80;;;3.50;;
33170;SDS011;19535;50.672;4.206;2023-01-20T09:01:20;3.78;;;3.47;;
33170;SDS011;19535;50.672;4.206;2023-01-20T09:03:48;3.30;;;3.00;;
33170;SDS011;19535;50.672;4.206;2023-01-20T09:06:35;3.78;;;3.47;;
33170;SDS011;19535;50.672;4.206;2023-01-20T09:09:03;3.92;;;3.60;;
33170;SDS011;19535;50.672;4.206;2023-01-20T09:11:30;3.50;;;3.20;;
33170;SDS011;19535;50.672;4.206;2023-01-20T09:13:57;3.78;;;3.47;;
33170;SDS011;19535;50.672;4.206;2023-01-20T09:16:24;4.05;;;3.45;;
33170;SDS011;19535;50.672;4.206;2023-01-20T09:18:51;3.25;;;2.95;;
33170;SDS011;19535;50.672;4.206;2023-01-20T09:21:17;4.22;;;3.22;;
33170;SDS011;19535;50.672;4.206;2023-01-20T09:23:45;3.38;;;3.08;;
33170;SDS011;19535;50.672;4.206;2023-01-20T09:26:13;3.83;;;3.38;;
33170;SDS011;19535;50.672;4.206;2023-01-20T09:28:59;3.15;;;2.83;;
33170;SDS011;19535;50.672;4.206;2023-01-20T09:31:35;3.95;;;3.05;;
33170;SDS011;19535;50.672;4.206;2023-01-20T09:34:04;3.13;;;2.90;;
33170;SDS011;19535;50.672;4.206;2023-01-20T09:36:30;3.20;;;2.90;;
33170;SDS011;19535;50.672;4.206;2023-01-20T09:38:57;2.90;;;2.67;;
33170;SDS011;19535;50.672;4.206;2023-01-20T09:41:45;4.60;;;2.60;;
33170;SDS011;19535;50.672;4.206;2023-01-20T09:44:51;3.72;;;2.83;;
33170;SDS011;19535;50.672;4.206;2023-01-20T09:47:26;4.18;;;2.72;;
33170;SDS011;19535;50.672;4.206;2023-01-20T09:53:08;2.97;;;2.67;;
33170;SDS011;19535;50.672;4.206;2023-01-20T09:55:44;5.95;;;2.80;;
33170;SDS011;19535;50.672;4.206;2023-01-20T10:03:34;3.40;;;2.67;;
33170;SDS011;19535;50.672;4.206;2023-01-20T10:06:12;3.35;;;2.40;;
33170;SDS011;19535;50.672;4.206;2023-01-20T10:08:57;3.10;;;2.58;;
33170;SDS011;19535;50.672;4.206;2023-01-20T10:11:39;4.25;;;2.38;;
33170;SDS011;19535;50.672;4.206;2023-01-20T10:19:50;5.57;;;2.80;;
33170;SDS011;19535;50.672;4.206;2023-01-20T10:22:37;2.50;;;2.30;;
33170;SDS011;19535;50.672;4.206;2023-01-20T10:25:30;3.58;;;2.28;;
33170;SDS011;19535;50.672;4.206;2023-01-20T10:28:29;4.80;;;2.63;;
33170;SDS011;19535;50.672;4.206;2023-01-20T10:31:00;4.22;;;2.38;;
33170;SDS011;19535;50.672;4.206;2023-01-20T10:33:36;5.00;;;2.58;;
33170;SDS011;19535;50.672;4.206;2023-01-20T10:36:07;3.50;;;2.55;;
33170;SDS011;19535;50.672;4.206;2023-01-20T10:38:53;3.78;;;2.42;;
33170;SDS011;19535;50.672;4.206;2023-01-20T10:41:37;3.45;;;2.20;;
33170;SDS011;19535;50.672;4.206;2023-01-20T10:44:11;2.83;;;2.22;;
33170;SDS011;19535;50.672;4.206;2023-01-20T10:58:18;3.47;;;2.00;;
33170;SDS011;19535;50.672;4.206;2023-01-20T11:00:48;3.30;;;2.15;;
33170;SDS011;19535;50.672;4.206;2023-01-20T11:03:19;3.35;;;2.33;;
33170;SDS011;19535;50.672;4.206;2023-01-20T11:05:48;2.90;;;2.25;;
33170;SDS011;19535;50.672;4.206;2023-01-20T11:08:19;2.57;;;2.03;;
33170;SDS011;19535;50.672;4.206;2023-01-20T11:10:50;3.42;;;2.42;;
33170;SDS011;19535;50.672;4.206;2023-01-20T11:13:19;2.50;;;2.00;;
33170;SDS011;19535;50.672;4.206;2023-01-20T11:15:50;3.20;;;2.17;;
33170;SDS011;19535;50.672;4.206;2023-01-20T11:18:23;2.53;;;2.33;;
33170;SDS011;19535;50.672;4.206;2023-01-20T11:20:54;2.42;;;1.90;;
33170;SDS011;19535;50.672;4.206;2023-01-20T11:23:23;2.40;;;1.90;;
33170;SDS011;19535;50.672;4.206;2023-01-20T11:26:46;2.38;;;2.00;;
33170;SDS011;19535;50.672;4.206;2023-01-20T11:34:24;2.65;;;1.95;;
33170;SDS011;19535;50.672;4.206;2023-01-20T11:42:22;4.63;;;2.30;;
33170;SDS011;19535;50.672;4.206;2023-01-20T11:44:51;3.10;;;2.10;;
33170;SDS011;19535;50.672;4.206;2023-01-20T11:47:27;2.60;;;1.88;;
33170;SDS011;19535;50.672;4.206;2023-01-20T11:52:39;2.22;;;1.90;;
33170;SDS011;19535;50.672;4.206;2023-01-20T11:55:13;2.35;;;1.77;;
33170;SDS011;19535;50.672;4.206;2023-01-20T12:02:58;2.72;;;1.70;;
33170;SDS011;19535;50.672;4.206;2023-01-20T12:05:32;4.20;;;1.90;;
33170;SDS011;19535;50.672;4.206;2023-01-20T12:08:03;2.63;;;1.98;;
33170;SDS011;19535;50.672;4.206;2023-01-20T12:10:31;2.67;;;1.70;;
33170;SDS011;19535;50.672;4.206;2023-01-20T12:13:18;2.40;;;1.73;;
33170;SDS011;19535;50.672;4.206;2023-01-20T12:15:50;3.25;;;1.88;;
33170;SDS011;19535;50.672;4.206;2023-01-20T12:21:09;2.30;;;1.70;;
33170;SDS011;19535;50.672;4.206;2023-01-20T12:23:45;2.50;;;1.70;;
33170;SDS011;19535;50.672;4.206;2023-01-20T12:26:18;1.88;;;1.65;;
33170;SDS011;19535;50.672;4.206;2023-01-20T12:31:20;2.13;;;1.63;;
33170;SDS011;19535;50.672;4.206;2023-01-20T12:53:15;2.00;;;1.50;;
33170;SDS011;19535;50.672;4.206;2023-01-20T12:58:58;1.73;;;1.50;;
33170;SDS011;19535;50.672;4.206;2023-01-20T13:09:39;1.85;;;1.45;;
33170;SDS011;19535;50.672;4.206;2023-01-20T13:15:44;2.28;;;1.50;;
33170;SDS011;19535;50.672;4.206;2023-01-20T13:20:42;2.67;;;1.80;;
33170;SDS011;19535;50.672;4.206;2023-01-20T13:23:14;1.92;;;1.50;;
33170;SDS011;19535;50.672;4.206;2023-01-20T13:25:44;2.70;;;1.73;;
33170;SDS011;19535;50.672;4.206;2023-01-20T13:28:14;2.33;;;1.40;;
33170;SDS011;19535;50.672;4.206;2023-01-20T13:30:48;2.10;;;1.77;;
33170;SDS011;19535;50.672;4.206;2023-01-20T13:33:28;2.00;;;1.40;;
33170;SDS011;19535;50.672;4.206;2023-01-20T13:38:42;2.10;;;1.38;;
33170;SDS011;19535;50.672;4.206;2023-01-20T13:41:10;1.95;;;1.35;;
33170;SDS011;19535;50.672;4.206;2023-01-20T13:48:37;2.17;;;1.55;;
33170;SDS011;19535;50.672;4.206;2023-01-20T13:53:51;2.55;;;1.77;;
33170;SDS011;19535;50.672;4.206;2023-01-20T13:58:53;2.15;;;1.65;;
33170;SDS011;19535;50.672;4.206;2023-01-20T14:01:20;1.80;;;1.40;;
33170;SDS011;19535;50.672;4.206;2023-01-20T14:04:06;2.38;;;1.70;;
33170;SDS011;19535;50.672;4.206;2023-01-20T14:06:44;1.23;;;1.10;;
33170;SDS011;19535;50.672;4.206;2023-01-20T14:09:19;1.77;;;1.30;;
33170;SDS011;19535;50.672;4.206;2023-01-20T14:11:49;1.15;;;1.05;;
33170;SDS011;19535;50.672;4.206;2023-01-20T14:14:20;3.15;;;1.55;;
33170;SDS011;19535;50.672;4.206;2023-01-20T14:16:48;2.15;;;1.60;;
33170;SDS011;19535;50.672;4.206;2023-01-20T14:19:31;1.60;;;1.40;;
33170;SDS011;19535;50.672;4.206;2023-01-20T14:22:00;1.70;;;1.23;;
33170;SDS011;19535;50.672;4.206;2023-01-20T14:24:33;2.40;;;1.60;;
33170;SDS011;19535;50.672;4.206;2023-01-20T14:29:54;1.60;;;1.23;;
33170;SDS011;19535;50.672;4.206;2023-01-20T14:34:51;1.75;;;1.23;;
33170;SDS011;19535;50.672;4.206;2023-01-20T14:37:34;2.45;;;1.30;;
33170;SDS011;19535;50.672;4.206;2023-01-20T14:45:45;1.80;;;1.40;;
33170;SDS011;19535;50.672;4.206;2023-01-20T14:48:14;2.10;;;1.35;;
33170;SDS011;19535;50.672;4.206;2023-01-20T14:50:58;2.47;;;1.50;;
33170;SDS011;19535;50.672;4.206;2023-01-20T14:53:27;2.17;;;1.40;;
33170;SDS011;19535;50.672;4.206;2023-01-20T14:56:01;2.20;;;1.40;;
33170;SDS011;19535;50.672;4.206;2023-01-20T14:58:29;2.08;;;1.50;;
33170;SDS011;19535;50.672;4.206;2023-01-20T15:01:00;2.50;;;1.60;;
33170;SDS011;19535;50.672;4.206;2023-01-20T15:03:28;3.40;;;2.05;;
33170;SDS011;19535;50.672;4.206;2023-01-20T15:05:56;2.30;;;1.50;;
33170;SDS011;19535;50.672;4.206;2023-01-20T15:21:48;1.30;;;1.13;;
33170;SDS011;19535;50.672;4.206;2023-01-20T15:24:29;2.03;;;1.45;;
33170;SDS011;19535;50.672;4.206;2023-01-20T15:26:58;1.88;;;1.48;;
33170;SDS011;19535;50.672;4.206;2023-01-20T15:31:57;1.50;;;1.40;;
33170;SDS011;19535;50.672;4.206;2023-01-20T15:34:26;1.90;;;1.40;;
33170;SDS011;19535;50.672;4.206;2023-01-20T15:36:54;2.05;;;1.42;;
33170;SDS011;19535;50.672;4.206;2023-01-20T15:39:25;2.83;;;1.33;;
33170;SDS011;19535;50.672;4.206;2023-01-20T15:41:55;2.22;;;1.60;;
33170;SDS011;19535;50.672;4.206;2023-01-20T15:44:23;1.80;;;1.30;;
33170;SDS011;19535;50.672;4.206;2023-01-20T15:46:50;1.52;;;1.20;;
33170;SDS011;19535;50.672;4.206;2023-01-20T15:49:17;1.38;;;1.20;;
33170;SDS011;19535;50.672;4.206;2023-01-20T15:51:44;3.10;;;1.73;;
33170;SDS011;19535;50.672;4.206;2023-01-20T15:54:11;2.17;;;1.20;;
33170;SDS011;19535;50.672;4.206;2023-01-20T15:59:15;1.88;;;1.27;;
33170;SDS011;19535;50.672;4.206;2023-01-20T16:01:43;1.85;;;1.40;;
33170;SDS011;19535;50.672;4.206;2023-01-20T16:04:12;2.57;;;1.50;;
33170;SDS011;19535;50.672;4.206;2023-01-20T16:06:39;4.75;;;4.22;;
33170;SDS011;19535;50.672;4.206;2023-01-20T16:11:51;18.95;;;17.15;;
33170;SDS011;19535;50.672;4.206;2023-01-20T16:14:18;15.23;;;13.80;;
33170;SDS011;19535;50.672;4.206;2023-01-20T16:16:45;14.23;;;12.82;;
33170;SDS011;19535;50.672;4.206;2023-01-20T16:19:12;12.43;;;11.05;;
33170;SDS011;19535;50.672;4.206;2023-01-20T16:21:39;9.65;;;8.73;;
33170;SDS011;19535;50.672;4.206;2023-01-20T16:24:10;8.00;;;7.38;;
33170;SDS011;19535;50.672;4.206;2023-01-20T16:26:37;8.63;;;7.72;;
33170;SDS011;19535;50.672;4.206;2023-01-20T16:29:04;9.40;;;6.80;;
33170;SDS011;19535;50.672;4.206;2023-01-20T16:31:31;7.88;;;7.07;;
33170;SDS011;19535;50.672;4.206;2023-01-20T16:33:58;7.53;;;6.82;;
33170;SDS011;19535;50.672;4.206;2023-01-20T16:36:25;23.00;;;20.90;;
33170;SDS011;19535;50.672;4.206;2023-01-20T16:38:52;24.75;;;22.15;;
33170;SDS011;19535;50.672;4.206;2023-01-20T16:41:21;23.45;;;21.35;;
33170;SDS011;19535;50.672;4.206;2023-01-20T16:43:49;20.47;;;18.57;;
33170;SDS011;19535;50.672;4.206;2023-01-20T16:46:18;18.08;;;16.58;;
33170;SDS011;19535;50.672;4.206;2023-01-20T16:48:49;15.38;;;14.07;;
33170;SDS011;19535;50.672;4.206;2023-01-20T16:51:18;13.35;;;12.23;;
33170;SDS011;19535;50.672;4.206;2023-01-20T16:53:46;13.82;;;12.50;;
33170;SDS011;19535;50.672;4.206;2023-01-20T16:56:14;12.18;;;11.18;;
33170;SDS011;19535;50.672;4.206;2023-01-20T16:58:42;11.98;;;10.77;;
33170;SDS011;19535;50.672;4.206;2023-01-20T17:01:11;13.90;;;9.45;;
33170;SDS011;19535;50.672;4.206;2023-01-20T17:03:39;9.10;;;8.30;;
33170;SDS011;19535;50.672;4.206;2023-01-20T17:06:11;8.65;;;7.88;;
33170;SDS011;19535;50.672;4.206;2023-01-20T17:08:47;8.40;;;7.50;;
33170;SDS011;19535;50.672;4.206;2023-01-20T17:11:18;6.90;;;6.30;;
33170;SDS011;19535;50.672;4.206;2023-01-20T17:13:45;7.45;;;6.75;;
33170;SDS011;19535;50.672;4.206;2023-01-20T17:16:12;6.78;;;6.18;;
33170;SDS011;19535;50.672;4.206;2023-01-20T17:18:40;5.75;;;5.25;;
33170;SDS011;19535;50.672;4.206;2023-01-20T17:21:10;5.70;;;5.20;;
33170;SDS011;19535;50.672;4.206;2023-01-20T17:23:38;5.95;;;5.38;;
33170;SDS011;19535;50.672;4.206;2023-01-20T17:26:05;5.57;;;5.07;;
33170;SDS011;19535;50.672;4.206;2023-01-20T17:28:33;5.13;;;4.70;;
33170;SDS011;19535;50.672;4.206;2023-01-20T17:31:04;4.95;;;4.55;;
33170;SDS011;19535;50.672;4.206;2023-01-20T17:33:32;4.43;;;4.03;;
33170;SDS011;19535;50.672;4.206;2023-01-20T17:36:03;4.45;;;4.05;;
33170;SDS011;19535;50.672;4.206;2023-01-20T17:38:32;5.55;;;4.30;;
33170;SDS011;19535;50.672;4.206;2023-01-20T17:41:00;5.23;;;3.80;;
33170;SDS011;19535;50.672;4.206;2023-01-20T17:43:34;4.53;;;4.13;;
33170;SDS011;19535;50.672;4.206;2023-01-20T17:46:10;4.22;;;3.85;;
33170;SDS011;19535;50.672;4.206;2023-01-20T17:48:41;4.65;;;3.70;;